Time;durP1;ratioP1;P1;durP2;ratioP2;P2;SDS_P1;SDS_P2;PMS_P1;PMS_P2;Temp;Humidity;BMP_temperature;BMP_pressure;BME280_temperature;BME280_humidity;BME280_pressure;Samples;Min_cycle;Max_cycle;Signal;HPM_P1;HPM_P2
2023/06/09 00:00:11;;;;;;;7.40;6.80;;;16.00;99.90;;;;;;6148623;23;20540;-85
2023/06/09 00:02:39;;;;;;;7.90;7.30;;;16.00;99.90;;;;;;6146570;23;20477;-84
2023/06/09 00:05:06;;;;;;;7.00;6.50;;;16.10;99.90;;;;;;6120400;23;20475;-84
2023/06/09 00:07:35;;;;;;;8.00;7.30;;;15.90;99.90;;;;;;6149162;23;20512;-85
2023/06/09 00:10:06;;;;;;;7.53;6.93;;;15.90;99.90;;;;;;6149450;23;20685;-85
2023/06/09 00:12:33;;;;;;;7.40;6.90;;;15.80;99.90;;;;;;6124813;23;20448;-85
2023/06/09 00:15:00;;;;;;;7.40;6.80;;;15.80;99.90;;;;;;6149159;23;20511;-85
2023/06/09 00:17:27;;;;;;;7.83;7.13;;;15.80;99.90;;;;;;6145663;23;20437;-85
2023/06/09 00:20:01;;;;;;;7.70;7.03;;;15.80;99.90;;;;;;6149210;23;20812;-85
2023/06/09 00:22:28;;;;;;;7.10;6.60;;;15.80;99.90;;;;;;6151454;23;20944;-85
2023/06/09 00:24:55;;;;;;;6.97;6.37;;;15.70;99.90;;;;;;6179845;23;20419;-85
2023/06/09 00:27:24;;;;;;;7.23;6.57;;;15.70;99.90;;;;;;6165115;23;20499;-85
2023/06/09 00:29:51;;;;;;;6.80;6.30;;;15.70;99.90;;;;;;6145208;23;20495;-84
2023/06/09 00:32:18;;;;;;;7.30;6.70;;;15.60;99.90;;;;;;6147390;23;20442;-85
2023/06/09 00:34:45;;;;;;;7.50;7.00;;;15.70;99.90;;;;;;6118673;23;20422;-85
2023/06/09 00:37:12;;;;;;;6.37;5.87;;;15.60;99.90;;;;;;6119250;23;20437;-85
2023/06/09 00:39:39;;;;;;;6.97;6.47;;;15.90;99.90;;;;;;6120471;23;20521;-85
2023/06/09 00:42:07;;;;;;;6.87;6.37;;;15.70;99.90;;;;;;6178511;23;20442;-85
2023/06/09 00:44:36;;;;;;;7.60;7.00;;;15.70;99.90;;;;;;6177998;23;20455;-85
2023/06/09 00:47:04;;;;;;;7.63;6.93;;;15.70;99.90;;;;;;6167056;23;20542;-85
2023/06/09 00:49:31;;;;;;;7.00;6.50;;;15.70;99.90;;;;;;6178450;23;20795;-85
2023/06/09 00:51:59;;;;;;;6.70;6.20;;;15.70;99.90;;;;;;6178902;23;20451;-85
2023/06/09 00:54:27;;;;;;;8.43;7.50;;;15.60;99.90;;;;;;6178666;23;20429;-85
2023/06/09 00:56:55;;;;;;;7.03;6.43;;;15.60;99.90;;;;;;6154633;23;20550;-85
2023/06/09 00:59:22;;;;;;;8.70;8.00;;;15.60;99.90;;;;;;6145059;23;20495;-85
2023/06/09 01:01:51;;;;;;;7.20;6.70;;;15.60;99.90;;;;;;6142852;23;20425;-85
2023/06/09 01:04:18;;;;;;;8.27;7.70;;;15.60;99.90;;;;;;6144206;23;20460;-85
2023/06/09 01:06:56;;;;;;;7.37;6.73;;;15.50;99.90;;;;;;6149105;23;20543;-85
2023/06/09 01:09:28;;;;;;;8.20;7.60;;;15.50;99.90;;;;;;6144887;23;20492;-85
2023/06/09 01:12:08;;;;;;;8.47;7.87;;;15.50;99.90;;;;;;6130595;23;20439;-85
2023/06/09 01:14:50;;;;;;;7.10;6.60;;;15.40;99.90;;;;;;6148024;23;20462;-85
2023/06/09 01:17:22;;;;;;;7.87;7.37;;;15.40;99.90;;;;;;6136708;23;20524;-85
2023/06/09 01:19:53;;;;;;;7.10;6.60;;;15.30;99.90;;;;;;6129823;23;20545;-85
2023/06/09 01:22:29;;;;;;;8.27;7.67;;;15.30;99.90;;;;;;6140641;23;20529;-85
2023/06/09 01:25:06;;;;;;;7.00;6.50;;;15.30;99.90;;;;;;6152380;23;20527;-85
2023/06/09 01:27:36;;;;;;;7.83;7.30;;;15.30;99.90;;;;;;6159198;23;20467;-85
2023/06/09 01:30:07;;;;;;;7.40;6.90;;;15.20;99.90;;;;;;6149694;23;20525;-85
2023/06/09 01:32:35;;;;;;;8.13;7.43;;;15.20;99.90;;;;;;6147019;23;20467;-85
2023/06/09 01:35:02;;;;;;;8.10;7.50;;;15.20;99.90;;;;;;6148967;23;20527;-85
2023/06/09 01:37:30;;;;;;;8.17;7.47;;;15.10;99.90;;;;;;6147134;23;20452;-84
2023/06/09 01:39:57;;;;;;;8.07;7.47;;;15.00;99.90;;;;;;6152167;23;20488;-85
2023/06/09 01:42:25;;;;;;;7.70;7.10;;;15.10;99.90;;;;;;6160363;23;20450;-85
2023/06/09 01:44:54;;;;;;;8.57;7.90;;;15.00;99.90;;;;;;6155475;23;20496;-85
2023/06/09 01:47:21;;;;;;;8.60;7.90;;;15.00;99.90;;;;;;6142926;23;20466;-85
2023/06/09 01:49:56;;;;;;;8.70;8.03;;;15.00;99.90;;;;;;6155830;23;20464;-85
2023/06/09 01:52:31;;;;;;;9.20;8.50;;;14.90;99.90;;;;;;6145496;23;20935;-85
2023/06/09 01:55:02;;;;;;;9.30;8.60;;;14.90;99.90;;;;;;6130819;23;20466;-85
2023/06/09 01:57:33;;;;;;;9.67;8.93;;;14.80;99.90;;;;;;6121143;23;20474;-84
2023/06/09 02:00:06;;;;;;;10.03;9.33;;;14.80;99.90;;;;;;6146872;23;20456;-84
2023/06/09 02:02:35;;;;;;;11.00;10.20;;;14.80;99.90;;;;;;6128027;23;20478;-85
2023/06/09 02:05:06;;;;;;;10.33;9.53;;;14.70;99.90;;;;;;6150408;23;20516;-84
2023/06/09 02:07:34;;;;;;;10.83;10.03;;;14.60;99.90;;;;;;6130659;23;20842;-85
2023/06/09 02:10:03;;;;;;;11.33;10.43;;;14.60;99.90;;;;;;6117536;23;20468;-85
2023/06/09 02:12:33;;;;;;;10.77;9.97;;;14.50;99.90;;;;;;6143302;23;20975;-85
2023/06/09 02:15:02;;;;;;;11.80;10.87;;;14.50;99.90;;;;;;6148563;23;20945;-85
2023/06/09 02:17:32;;;;;;;11.53;10.73;;;14.40;99.90;;;;;;6149853;23;20561;-85
2023/06/09 02:19:59;;;;;;;12.33;11.33;;;14.40;99.90;;;;;;6151446;23;20459;-84
2023/06/09 02:22:26;;;;;;;12.50;11.30;;;14.40;99.90;;;;;;6179715;23;20529;-85
2023/06/09 02:24:53;;;;;;;12.23;11.23;;;14.40;99.90;;;;;;6159130;23;20469;-85
2023/06/09 02:27:20;;;;;;;12.50;11.50;;;14.40;99.90;;;;;;6132703;23;20771;-85
2023/06/09 02:29:47;;;;;;;12.80;11.80;;;14.30;99.90;;;;;;6119479;23;20552;-76
2023/06/09 02:32:17;;;;;;;12.97;11.97;;;14.30;99.90;;;;;;6145812;23;20486;-84
2023/06/09 02:34:45;;;;;;;13.67;12.63;;;14.30;99.90;;;;;;6150086;23;20833;-83
2023/06/09 02:37:12;;;;;;;13.60;12.67;;;14.30;99.90;;;;;;6162209;23;20454;-83
2023/06/09 02:39:39;;;;;;;12.70;11.70;;;14.30;99.90;;;;;;6202513;23;20972;-83
2023/06/09 02:42:07;;;;;;;12.77;11.83;;;14.30;99.90;;;;;;6145062;23;20443;-84
2023/06/09 02:44:37;;;;;;;12.80;11.90;;;14.30;99.90;;;;;;6128246;23;20430;-84
2023/06/09 02:47:04;;;;;;;13.10;12.10;;;14.30;99.90;;;;;;6150661;23;20533;-84
2023/06/09 02:49:33;;;;;;;11.27;10.47;;;14.20;99.90;;;;;;6177840;23;20445;-84
2023/06/09 02:52:00;;;;;;;11.53;10.73;;;14.20;99.90;;;;;;6132184;23;20446;-82
2023/06/09 02:54:27;;;;;;;12.03;11.10;;;14.20;99.90;;;;;;6128575;23;20483;-84
2023/06/09 02:56:56;;;;;;;10.87;10.10;;;14.20;99.90;;;;;;6136435;23;20439;-84
2023/06/09 02:59:24;;;;;;;11.30;10.43;;;14.30;99.90;;;;;;6157562;23;20526;-84
2023/06/09 03:01:51;;;;;;;10.93;10.13;;;14.30;99.90;;;;;;6149403;23;20428;-84
2023/06/09 03:04:18;;;;;;;12.47;11.57;;;14.20;99.90;;;;;;6125553;23;20449;-84
2023/06/09 03:06:49;;;;;;;10.70;9.90;;;14.30;99.90;;;;;;6140357;23;20817;-84
2023/06/09 03:09:18;;;;;;;10.10;9.40;;;14.40;99.90;;;;;;6162620;23;20526;-84
2023/06/09 03:11:45;;;;;;;12.40;11.27;;;14.20;99.90;;;;;;6179872;23;20434;-84
2023/06/09 03:14:13;;;;;;;10.67;9.73;;;14.30;99.90;;;;;;6165385;23;20547;-84
2023/06/09 03:16:40;;;;;;;10.70;9.90;;;14.30;99.90;;;;;;6138760;23;21831;-84
2023/06/09 03:19:07;;;;;;;10.53;9.73;;;14.20;99.90;;;;;;6129013;23;20450;-83
2023/06/09 03:21:35;;;;;;;10.97;10.17;;;14.30;99.90;;;;;;6148319;23;20426;-84
2023/06/09 03:24:06;;;;;;;10.60;9.90;;;14.30;99.90;;;;;;6150218;23;20453;-84
2023/06/09 03:26:33;;;;;;;10.50;9.70;;;14.30;99.90;;;;;;6150002;23;20488;-84
2023/06/09 03:29:00;;;;;;;9.57;8.77;;;14.30;99.90;;;;;;6178958;23;20446;-84
2023/06/09 03:31:27;;;;;;;11.73;10.93;;;14.30;99.90;;;;;;6177746;23;20418;-83
2023/06/09 03:33:54;;;;;;;11.23;10.43;;;14.30;99.90;;;;;;6149693;23;20450;-84
2023/06/09 03:36:22;;;;;;;12.20;11.30;;;14.30;99.90;;;;;;6164621;23;20435;-84
2023/06/09 03:38:50;;;;;;;13.67;12.67;;;14.20;99.90;;;;;;6165814;23;20477;-84
2023/06/09 03:41:18;;;;;;;12.10;11.20;;;14.10;99.90;;;;;;6153554;23;20484;-83
2023/06/09 03:43:45;;;;;;;12.63;11.63;;;14.00;99.90;;;;;;6180001;23;20454;-84
2023/06/09 03:46:12;;;;;;;13.03;12.00;;;14.00;99.90;;;;;;6170410;23;20462;-83
2023/06/09 03:48:40;;;;;;;13.83;12.83;;;13.90;99.90;;;;;;6149904;23;20879;-83
2023/06/09 03:51:07;;;;;;;14.53;13.43;;;13.90;99.90;;;;;;6148111;23;20546;-84
2023/06/09 03:53:34;;;;;;;14.30;13.10;;;13.80;99.90;;;;;;6157635;23;20436;-83
2023/06/09 03:56:01;;;;;;;13.68;12.48;;;13.80;99.90;;;;;;6162443;23;20499;-84
2023/06/09 03:58:30;;;;;;;13.57;12.57;;;13.80;99.90;;;;;;6140687;23;20580;-84
2023/06/09 04:00:57;;;;;;;13.07;12.07;;;13.70;99.90;;;;;;6147617;23;20955;-83
2023/06/09 04:03:24;;;;;;;13.93;12.90;;;13.70;99.90;;;;;;6135993;23;20442;-83
2023/06/09 04:05:51;;;;;;;12.75;11.85;;;13.70;99.90;;;;;;6120348;23;20517;-84
2023/06/09 04:08:18;;;;;;;13.80;12.80;;;13.70;99.90;;;;;;6119508;23;20228;-83
2023/06/09 04:10:45;;;;;;;15.20;13.90;;;13.60;99.90;;;;;;6129562;23;20454;-84
2023/06/09 04:13:13;;;;;;;14.73;13.55;;;13.60;99.90;;;;;;6146395;23;20436;-83
2023/06/09 04:15:42;;;;;;;14.57;13.47;;;13.60;99.90;;;;;;6136062;23;20573;-83
2023/06/09 04:18:09;;;;;;;14.52;13.45;;;13.60;99.90;;;;;;6135128;23;20483;-84
2023/06/09 04:20:36;;;;;;;14.80;13.70;;;13.50;99.90;;;;;;6149390;23;20237;-83
2023/06/09 04:23:03;;;;;;;15.73;14.53;;;13.50;99.90;;;;;;6149403;23;20438;-84
2023/06/09 04:25:30;;;;;;;14.40;13.27;;;13.50;99.90;;;;;;6149427;23;20520;-83
2023/06/09 04:28:00;;;;;;;14.17;13.17;;;13.60;99.90;;;;;;6146155;23;20504;-83
2023/06/09 04:30:29;;;;;;;13.65;12.65;;;13.60;99.90;;;;;;6162210;23;20522;-84
2023/06/09 04:32:59;;;;;;;15.10;13.60;;;13.70;99.90;;;;;;6145069;23;20191;-84
2023/06/09 04:35:27;;;;;;;14.33;13.27;;;13.70;99.90;;;;;;6119364;23;20432;-84
2023/06/09 04:37:54;;;;;;;13.50;12.47;;;13.80;99.90;;;;;;6119544;23;20588;-84
2023/06/09 04:40:22;;;;;;;13.10;12.07;;;13.80;99.90;;;;;;6122397;23;20481;-83
2023/06/09 04:42:52;;;;;;;14.50;13.40;;;13.90;99.90;;;;;;6155159;23;20456;-84
2023/06/09 04:45:20;;;;;;;14.07;13.07;;;13.90;99.90;;;;;;6140832;23;20439;-83
2023/06/09 04:47:50;;;;;;;14.03;13.00;;;14.00;99.90;;;;;;6130878;23;20481;-83
2023/06/09 04:50:19;;;;;;;12.77;11.63;;;14.10;99.90;;;;;;6147449;23;20430;-84
2023/06/09 04:52:47;;;;;;;14.20;13.10;;;14.10;99.90;;;;;;6149083;23;20495;-84
2023/06/09 04:55:14;;;;;;;12.73;11.83;;;14.20;99.90;;;;;;6147789;23;20817;-84
2023/06/09 04:57:43;;;;;;;13.47;12.20;;;14.30;99.90;;;;;;6149558;23;20444;-83
2023/06/09 05:00:15;;;;;;;12.70;11.77;;;14.40;99.90;;;;;;6168612;23;20461;-83
2023/06/09 05:02:43;;;;;;;12.77;11.87;;;14.40;99.90;;;;;;6151755;23;20434;-84
2023/06/09 05:05:10;;;;;;;13.37;12.37;;;14.50;99.90;;;;;;6147074;23;20956;-84
2023/06/09 05:07:40;;;;;;;12.30;11.40;;;14.60;99.90;;;;;;6126068;23;20470;-84
2023/06/09 05:10:08;;;;;;;13.57;12.23;;;14.70;99.90;;;;;;6143085;23;20442;-83
2023/06/09 05:12:36;;;;;;;11.57;10.60;;;14.70;99.90;;;;;;6149930;23;20432;-84
2023/06/09 05:15:04;;;;;;;12.83;11.87;;;14.80;99.90;;;;;;6138553;23;20474;-84
2023/06/09 05:17:33;;;;;;;13.67;12.57;;;14.70;99.90;;;;;;6149791;23;20489;-84
2023/06/09 05:20:00;;;;;;;12.90;11.80;;;14.80;99.90;;;;;;6145211;23;20628;-84
2023/06/09 05:22:27;;;;;;;14.17;13.13;;;14.80;99.90;;;;;;6121403;23;20646;-83
2023/06/09 05:24:57;;;;;;;13.77;12.77;;;14.80;99.90;;;;;;6145054;23;20445;-84
2023/06/09 05:27:24;;;;;;;11.97;11.07;;;14.90;99.90;;;;;;6143145;23;20974;-84
2023/06/09 05:29:51;;;;;;;13.10;12.10;;;15.00;99.90;;;;;;6149188;23;20470;-84
2023/06/09 05:32:18;;;;;;;13.70;12.60;;;15.20;99.90;;;;;;6159205;23;20431;-84
2023/06/09 05:34:45;;;;;;;13.70;12.67;;;15.20;99.90;;;;;;6173074;23;20568;-84
2023/06/09 05:37:13;;;;;;;13.40;12.30;;;15.20;99.90;;;;;;6136948;23;20440;-84
2023/06/09 05:39:40;;;;;;;13.40;12.43;;;15.30;99.90;;;;;;6142387;23;20446;-83
2023/06/09 05:42:10;;;;;;;11.63;10.83;;;15.40;99.90;;;;;;6142911;23;20440;-84
2023/06/09 05:44:37;;;;;;;12.10;11.20;;;15.40;99.90;;;;;;6145057;23;20543;-83
2023/06/09 05:47:04;;;;;;;13.10;12.10;;;15.50;99.90;;;;;;6152231;23;20527;-83
2023/06/09 05:49:33;;;;;;;12.60;11.70;;;15.60;99.90;;;;;;6175857;23;20435;-84
2023/06/09 05:51:59;;;;;;;11.83;11.00;;;15.60;99.90;;;;;;6180240;23;20416;-84
2023/06/09 05:54:27;;;;;;;12.80;11.83;;;15.80;99.90;;;;;;6171912;23;20919;-84
2023/06/09 05:56:54;;;;;;;12.87;11.93;;;15.90;99.90;;;;;;6127259;23;20445;-84
2023/06/09 05:59:23;;;;;;;12.47;11.47;;;16.00;99.90;;;;;;6145006;23;20877;-84
2023/06/09 06:01:50;;;;;;;12.47;11.57;;;16.10;99.90;;;;;;6148388;23;20460;-77
2023/06/09 06:04:18;;;;;;;12.70;11.67;;;16.20;99.90;;;;;;6142921;23;20438;-75
2023/06/09 06:06:45;;;;;;;11.90;11.00;;;16.30;99.90;;;;;;6147167;23;20495;-75
2023/06/09 06:09:13;;;;;;;12.10;11.20;;;16.60;99.90;;;;;;6150312;23;20472;-77
2023/06/09 06:11:40;;;;;;;11.70;10.70;;;16.60;99.90;;;;;;6143437;23;20437;-75
2023/06/09 06:14:07;;;;;;;10.70;9.90;;;16.60;99.90;;;;;;6148967;23;20502;-75
2023/06/09 06:16:36;;;;;;;11.97;10.80;;;16.70;99.90;;;;;;6148050;23;20456;-73
2023/06/09 06:19:04;;;;;;;10.13;9.30;;;16.80;99.90;;;;;;6142328;23;20464;-75
2023/06/09 06:21:30;;;;;;;11.10;10.30;;;17.00;99.90;;;;;;6145656;23;20893;-75
2023/06/09 06:23:57;;;;;;;9.90;9.20;;;17.10;99.90;;;;;;6145080;23;20464;-77
2023/06/09 06:26:25;;;;;;;10.23;9.57;;;17.30;99.90;;;;;;6142221;23;20491;-75
2023/06/09 06:28:52;;;;;;;10.43;9.50;;;17.40;99.90;;;;;;6124121;23;20551;-75
2023/06/09 06:31:19;;;;;;;10.23;9.53;;;17.60;99.90;;;;;;6140687;23;20482;-75
2023/06/09 06:33:48;;;;;;;9.93;9.23;;;17.70;99.90;;;;;;6136157;23;20525;-75
2023/06/09 06:36:21;;;;;;;9.30;8.63;;;17.90;99.90;;;;;;6130324;23;20444;-76
2023/06/09 06:38:48;;;;;;;9.53;8.83;;;17.90;99.90;;;;;;6121962;23;20458;-80
2023/06/09 06:41:15;;;;;;;9.67;8.97;;;18.10;99.90;;;;;;6120260;23;20422;-80
2023/06/09 06:43:42;;;;;;;10.20;9.50;;;18.10;99.90;;;;;;6132212;23;20507;-80
2023/06/09 06:46:11;;;;;;;10.07;9.37;;;18.10;99.90;;;;;;6126712;23;20573;-80
2023/06/09 06:48:38;;;;;;;10.50;9.80;;;18.20;99.90;;;;;;6149728;23;20506;-80
2023/06/09 06:51:07;;;;;;;9.47;8.87;;;18.40;99.90;;;;;;6150052;23;20520;-80
2023/06/09 06:53:35;;;;;;;9.40;8.77;;;18.50;99.90;;;;;;6141585;23;20520;-81
2023/06/09 06:56:02;;;;;;;8.80;8.10;;;18.60;99.90;;;;;;6119897;23;20425;-80
2023/06/09 06:58:29;;;;;;;9.27;8.60;;;18.70;99.90;;;;;;6140119;23;20531;-78
2023/06/09 07:00:56;;;;;;;8.23;7.63;;;18.90;99.90;;;;;;6146765;23;20520;-76
2023/06/09 07:03:24;;;;;;;8.13;7.53;;;19.00;99.90;;;;;;6137533;23;20444;-78
2023/06/09 07:05:51;;;;;;;8.70;7.93;;;19.10;99.90;;;;;;6136486;23;20464;-82
2023/06/09 07:08:20;;;;;;;7.80;7.30;;;19.20;99.90;;;;;;6130021;23;20480;-84
2023/06/09 07:10:47;;;;;;;8.07;7.53;;;19.40;99.90;;;;;;6127808;23;20836;-84
2023/06/09 07:13:14;;;;;;;8.57;7.77;;;19.50;99.90;;;;;;6118559;23;20784;-83
2023/06/09 07:15:41;;;;;;;7.83;7.23;;;19.50;99.90;;;;;;6131278;23;20437;-84
2023/06/09 07:18:08;;;;;;;7.53;7.03;;;19.70;99.90;;;;;;6118962;23;20868;-84
2023/06/09 07:20:36;;;;;;;8.70;8.10;;;19.70;99.90;;;;;;6130455;23;20750;-84
2023/06/09 07:23:03;;;;;;;7.77;7.17;;;19.80;99.90;;;;;;6142080;23;20450;-84
2023/06/09 07:25:32;;;;;;;7.63;7.13;;;19.80;99.90;;;;;;6136056;23;20445;-84
2023/06/09 07:27:58;;;;;;;8.07;7.47;;;19.90;99.90;;;;;;6149161;23;20457;-84
2023/06/09 07:30:26;;;;;;;7.97;7.30;;;20.00;99.90;;;;;;6145199;23;20493;-84
2023/06/09 07:32:53;;;;;;;7.60;7.00;;;20.10;99.90;;;;;;6132104;23;20980;-84
2023/06/09 07:35:23;;;;;;;6.40;5.90;;;20.40;99.90;;;;;;6149269;23;20446;-84
2023/06/09 07:37:50;;;;;;;6.60;6.00;;;20.50;99.90;;;;;;6128792;23;20865;-84
2023/06/09 07:40:17;;;;;;;5.67;5.27;;;20.80;99.90;;;;;;6132324;23;20440;-83
2023/06/09 07:42:45;;;;;;;6.60;6.00;;;20.90;99.90;;;;;;6120114;23;20465;-84
2023/06/09 07:45:12;;;;;;;5.80;5.30;;;21.10;99.90;;;;;;6140594;23;21588;-84
2023/06/09 07:47:39;;;;;;;6.07;5.60;;;21.40;99.90;;;;;;6135115;23;20448;-82
2023/06/09 07:50:07;;;;;;;6.10;5.70;;;21.70;99.90;;;;;;6149152;23;20439;-82
2023/06/09 07:52:36;;;;;;;7.07;6.57;;;22.20;99.90;;;;;;6119504;23;20492;-82
2023/06/09 07:55:04;;;;;;;6.03;5.60;;;22.50;99.90;;;;;;6126890;23;20503;-84
2023/06/09 07:57:31;;;;;;;6.90;6.40;;;22.80;99.90;;;;;;6136357;23;20452;-84
2023/06/09 08:00:00;;;;;;;6.03;5.53;;;23.00;99.90;;;;;;6148198;23;20941;-84
2023/06/09 08:02:28;;;;;;;6.30;5.90;;;23.20;99.90;;;;;;6124777;23;20436;-84
2023/06/09 08:04:55;;;;;;;7.30;6.70;;;23.40;99.90;;;;;;6119501;23;20434;-85
2023/06/09 08:07:22;;;;;;;7.00;6.50;;;23.70;99.90;;;;;;6120772;23;20544;-85
2023/06/09 08:09:49;;;;;;;5.97;5.57;;;24.00;99.90;;;;;;6136875;23;20592;-85
2023/06/09 08:12:16;;;;;;;6.73;6.33;;;24.40;99.90;;;;;;6138566;23;20433;-85
2023/06/09 08:14:43;;;;;;;7.13;6.63;;;24.70;99.90;;;;;;6134633;23;20826;-85
2023/06/09 08:17:12;;;;;;;6.83;6.23;;;24.80;99.90;;;;;;6130423;23;20456;-85
2023/06/09 08:19:39;;;;;;;7.00;6.40;;;24.70;99.90;;;;;;6145066;23;20432;-86
2023/06/09 08:22:06;;;;;;;7.47;6.77;;;24.90;99.90;;;;;;6149251;23;20428;-86
2023/06/09 08:24:33;;;;;;;6.23;5.77;;;25.00;99.90;;;;;;6138533;23;20456;-86
2023/06/09 08:27:00;;;;;;;6.00;5.60;;;25.20;99.90;;;;;;6134500;23;20511;-85
2023/06/09 08:29:27;;;;;;;6.17;5.60;;;25.50;99.90;;;;;;6122711;23;20470;-85
2023/06/09 08:31:54;;;;;;;6.17;5.67;;;25.80;99.90;;;;;;6118748;23;20943;-85
2023/06/09 08:34:23;;;;;;;5.50;5.20;;;25.90;99.90;;;;;;6134637;23;20433;-85
2023/06/09 08:36:50;;;;;;;6.07;5.60;;;25.70;99.90;;;;;;6127123;23;20476;-85
2023/06/09 08:39:17;;;;;;;5.50;5.20;;;25.80;99.90;;;;;;6147787;23;20428;-85
2023/06/09 08:41:51;;;;;;;5.47;4.97;;;25.70;99.90;;;;;;6131352;23;20488;-85
2023/06/09 08:44:20;;;;;;;5.73;5.33;;;25.70;99.90;;;;;;6127209;23;20505;-86
2023/06/09 08:46:49;;;;;;;5.83;5.33;;;26.00;99.90;;;;;;6118474;23;20521;-85
2023/06/09 08:49:17;;;;;;;5.43;5.03;;;26.40;99.90;;;;;;6119356;23;20552;-85
2023/06/09 08:51:46;;;;;;;5.80;5.40;;;27.00;99.90;;;;;;6140258;23;20991;-85
2023/06/09 08:54:16;;;;;;;5.70;5.30;;;27.20;99.90;;;;;;6131446;23;20433;-85
2023/06/09 08:56:44;;;;;;;5.83;5.43;;;27.60;99.90;;;;;;6125516;23;20936;-85
2023/06/09 08:59:13;;;;;;;5.67;5.27;;;28.10;99.90;;;;;;6129342;23;20831;-85
2023/06/09 09:01:41;;;;;;;5.37;5.07;;;28.50;99.90;;;;;;6137301;23;20857;-85
2023/06/09 09:04:08;;;;;;;5.60;5.20;;;28.80;99.90;;;;;;6159385;23;20456;-85
2023/06/09 09:06:37;;;;;;;5.27;4.97;;;29.20;99.90;;;;;;6129475;23;20487;-85
2023/06/09 09:09:05;;;;;;;4.83;4.50;;;29.60;99.90;;;;;;6123392;23;20921;-85
2023/06/09 09:11:33;;;;;;;5.90;5.07;;;29.90;98.80;;;;;;6142471;23;20445;-85
2023/06/09 09:14:09;;;;;;;5.10;4.80;;;30.20;98.30;;;;;;6121608;23;20456;-83
2023/06/09 09:16:36;;;;;;;5.17;4.87;;;30.50;97.40;;;;;;6144976;23;20435;-84
2023/06/09 09:19:04;;;;;;;4.00;3.80;;;30.60;94.00;;;;;;6129964;23;20449;-83
2023/06/09 09:21:31;;;;;;;3.60;3.40;;;29.50;93.20;;;;;;6137691;23;20842;-83
2023/06/09 09:24:00;;;;;;;4.17;3.87;;;29.10;93.70;;;;;;6141996;23;20513;-83
2023/06/09 09:26:30;;;;;;;3.47;3.23;;;28.70;94.40;;;;;;6120928;23;20442;-83
2023/06/09 09:29:04;;;;;;;3.90;3.70;;;28.40;93.10;;;;;;6121656;23;20477;-85
2023/06/09 09:31:33;;;;;;;3.70;3.50;;;28.00;92.90;;;;;;6129507;23;20587;-85
2023/06/09 09:34:00;;;;;;;3.53;3.33;;;27.70;94.10;;;;;;6142743;23;20433;-85
2023/06/09 09:36:28;;;;;;;4.20;3.90;;;27.70;93.70;;;;;;6135873;23;20437;-85
2023/06/09 09:38:56;;;;;;;3.60;3.40;;;27.60;94.60;;;;;;6131381;23;20996;-85
2023/06/09 09:41:23;;;;;;;4.03;3.73;;;27.60;95.30;;;;;;6119912;23;20434;-85
2023/06/09 09:43:57;;;;;;;4.03;3.73;;;27.50;95.40;;;;;;6134427;23;20432;-85
2023/06/09 09:46:24;;;;;;;4.33;3.93;;;27.60;95.50;;;;;;6130995;23;20466;-86
2023/06/09 09:48:54;;;;;;;4.37;4.07;;;27.90;95.90;;;;;;6141689;23;20817;-85
2023/06/09 09:51:21;;;;;;;3.80;3.60;;;28.20;94.80;;;;;;6132722;23;20459;-86
2023/06/09 09:53:51;;;;;;;3.63;3.43;;;28.70;93.40;;;;;;6149431;23;20943;-85
2023/06/09 09:56:27;;;;;;;4.00;3.70;;;28.90;92.40;;;;;;6145982;23;20781;-86
2023/06/09 09:58:56;;;;;;;4.10;3.80;;;28.90;93.00;;;;;;6143606;23;20474;-86
2023/06/09 10:01:24;;;;;;;4.30;4.00;;;29.20;92.40;;;;;;6133794;23;20982;-86
2023/06/09 10:03:54;;;;;;;3.80;3.60;;;29.10;91.90;;;;;;6130101;23;20437;-86
2023/06/09 10:06:27;;;;;;;3.80;3.50;;;29.00;93.20;;;;;;6117129;23;20456;-86
2023/06/09 10:08:55;;;;;;;3.50;3.30;;;29.10;92.50;;;;;;6138979;23;20527;-86
2023/06/09 10:11:23;;;;;;;3.77;3.57;;;29.30;92.00;;;;;;6139494;23;20939;-86
2023/06/09 10:13:51;;;;;;;4.10;3.80;;;29.50;91.90;;;;;;6144074;23;20441;-86
2023/06/09 10:16:21;;;;;;;4.07;3.77;;;29.80;90.20;;;;;;6119961;23;20469;-86
2023/06/09 10:18:49;;;;;;;4.00;3.73;;;29.70;90.20;;;;;;6120997;23;20678;-86
2023/06/09 10:21:17;;;;;;;3.47;3.20;;;29.40;88.10;;;;;;6131756;23;20472;-85
2023/06/09 10:23:45;;;;;;;3.60;3.40;;;29.40;90.00;;;;;;6120938;23;20429;-86
2023/06/09 10:26:14;;;;;;;3.97;3.70;;;29.50;90.20;;;;;;6129916;23;20727;-84
2023/06/09 10:28:41;;;;;;;3.57;3.33;;;29.80;90.20;;;;;;6147861;23;20456;-86
2023/06/09 10:31:11;;;;;;;3.70;3.40;;;29.90;85.00;;;;;;6147064;23;20832;-86
2023/06/09 10:33:43;;;;;;;4.17;3.80;;;29.90;86.70;;;;;;6141981;23;20440;-86
2023/06/09 10:36:10;;;;;;;4.20;3.90;;;29.90;86.80;;;;;;6140635;23;20917;-84
2023/06/09 10:38:42;;;;;;;3.60;3.40;;;30.00;85.50;;;;;;6155760;23;20453;-85
2023/06/09 10:41:15;;;;;;;3.83;3.53;;;29.80;83.60;;;;;;6139085;23;20448;-85
2023/06/09 10:44:10;;;;;;;3.67;3.47;;;30.00;84.80;;;;;;6145964;23;20435;-85
2023/06/09 10:46:42;;;;;;;4.37;4.03;;;30.60;84.70;;;;;;6141067;23;20574;-85
2023/06/09 10:49:36;;;;;;;4.23;3.93;;;31.30;83.50;;;;;;6147312;23;20449;-85
2023/06/09 10:52:04;;;;;;;3.77;3.50;;;31.60;79.50;;;;;;6122492;23;20441;-85
2023/06/09 10:54:35;;;;;;;3.60;3.40;;;31.00;78.50;;;;;;6125212;23;20439;-86
2023/06/09 10:57:03;;;;;;;3.70;3.40;;;30.50;78.60;;;;;;6149205;23;20967;-85
2023/06/09 11:00:14;;;;;;;3.80;3.60;;;30.50;78.70;;;;;;6144533;23;20961;-84
2023/06/09 11:02:42;;;;;;;3.60;3.40;;;30.80;77.20;;;;;;6123182;23;20428;-86
2023/06/09 11:05:11;;;;;;;3.50;3.20;;;31.00;77.80;;;;;;6122329;23;20470;-86
2023/06/09 11:07:46;;;;;;;3.63;3.00;;;31.20;78.20;;;;;;6135931;23;20452;-85
2023/06/09 11:10:36;;;;;;;3.40;3.10;;;31.70;76.40;;;;;;6143600;23;20554;-85
2023/06/09 11:13:19;;;;;;;3.63;3.33;;;32.20;74.60;;;;;;6134079;23;20443;-85
2023/06/09 11:16:00;;;;;;;3.47;3.27;;;32.30;75.20;;;;;;6136121;23;20497;-86
2023/06/09 11:18:29;;;;;;;3.27;3.07;;;31.60;76.60;;;;;;6149597;23;20804;-86
2023/06/09 11:21:11;;;;;;;3.50;3.30;;;31.20;78.30;;;;;;6131012;23;20447;-87
2023/06/09 11:24:00;;;;;;;3.93;3.73;;;31.30;76.40;;;;;;6119528;23;20487;-86
2023/06/09 11:26:28;;;;;;;3.50;3.20;;;31.10;77.00;;;;;;6135603;23;20457;-87
2023/06/09 11:28:55;;;;;;;3.67;3.47;;;30.90;75.30;;;;;;6149680;23;20836;-85
2023/06/09 11:31:23;;;;;;;3.40;3.20;;;31.00;76.30;;;;;;6149272;23;20559;-86
2023/06/09 11:33:53;;;;;;;3.97;3.67;;;30.80;76.40;;;;;;6146538;23;20432;-86
2023/06/09 11:36:32;;;;;;;3.60;3.30;;;30.50;78.70;;;;;;6147952;23;20939;-87
2023/06/09 11:39:03;;;;;;;3.50;3.30;;;29.90;79.30;;;;;;6142047;23;20539;-86
2023/06/09 11:41:31;;;;;;;3.10;2.90;;;29.70;78.10;;;;;;6148480;23;20433;-86
2023/06/09 11:43:58;;;;;;;3.70;3.50;;;29.70;76.50;;;;;;6149638;23;20825;-86
2023/06/09 11:46:26;;;;;;;4.97;3.63;;;29.70;78.30;;;;;;6144859;23;20461;-86
2023/06/09 11:49:13;;;;;;;3.30;3.10;;;30.00;80.40;;;;;;6120635;23;20847;-86
2023/06/09 11:51:55;;;;;;;3.80;3.60;;;30.50;77.40;;;;;;6131384;23;21040;-86
2023/06/09 11:54:23;;;;;;;3.50;3.30;;;30.70;75.80;;;;;;6144214;23;20451;-86
2023/06/09 11:56:51;;;;;;;3.40;3.20;;;30.20;78.30;;;;;;6141961;23;20548;-86
2023/06/09 11:59:19;;;;;;;3.73;3.40;;;30.50;77.20;;;;;;6147639;23;20423;-86
2023/06/09 12:01:48;;;;;;;3.60;3.40;;;30.80;76.00;;;;;;6143692;23;20429;-86
2023/06/09 12:04:15;;;;;;;3.00;2.80;;;31.10;73.50;;;;;;6149655;23;20439;-86
2023/06/09 12:06:46;;;;;;;3.53;3.23;;;31.10;74.20;;;;;;6124361;23;20529;-86
2023/06/09 12:09:20;;;;;;;3.87;3.67;;;30.60;75.20;;;;;;6156545;23;20475;-86
2023/06/09 12:11:52;;;;;;;3.13;2.93;;;29.90;77.60;;;;;;6152271;23;20804;-86
2023/06/09 12:14:19;;;;;;;3.70;3.50;;;29.80;76.90;;;;;;6150561;23;20440;-86
2023/06/09 12:16:46;;;;;;;3.40;3.20;;;29.40;78.30;;;;;;6135178;23;20540;-86
2023/06/09 12:19:13;;;;;;;22.73;6.10;;;29.30;79.50;;;;;;6119851;23;20449;-87
2023/06/09 12:21:40;;;;;;;3.30;3.10;;;29.40;77.30;;;;;;6142072;23;20440;-86
2023/06/09 12:24:12;;;;;;;3.53;3.00;;;29.90;77.00;;;;;;6136382;23;20463;-85
2023/06/09 12:26:41;;;;;;;2.83;2.50;;;30.40;78.20;;;;;;6128048;23;20457;-86
2023/06/09 12:29:09;;;;;;;3.83;3.50;;;31.00;77.40;;;;;;6146380;23;20486;-85
2023/06/09 12:31:43;;;;;;;3.20;2.90;;;31.70;75.00;;;;;;6125384;23;20521;-85
2023/06/09 12:34:21;;;;;;;3.80;3.40;;;32.50;72.30;;;;;;6141744;23;20508;-85
2023/06/09 12:36:48;;;;;;;3.07;2.87;;;32.60;70.90;;;;;;6122795;23;20972;-85
2023/06/09 12:39:19;;;;;;;3.30;3.00;;;32.50;66.80;;;;;;6148796;23;20424;-85
2023/06/09 12:41:47;;;;;;;2.87;2.67;;;31.80;67.60;;;;;;6117514;23;20444;-86
2023/06/09 12:44:21;;;;;;;3.40;2.83;;;31.90;68.60;;;;;;6143822;23;20512;-86
2023/06/09 12:46:54;;;;;;;3.03;2.80;;;32.00;66.10;;;;;;6148383;23;20452;-85
2023/06/09 12:49:29;;;;;;;3.13;2.93;;;32.10;68.30;;;;;;6149713;23;20431;-85